createdAt,value
2019-02-05T00:00:37.990Z,6.20
2019-02-05T00:03:11.365Z,5.50
2019-02-05T00:05:39.902Z,5.77
2019-02-05T00:08:08.413Z,5.60
2019-02-05T00:10:36.966Z,5.43
2019-02-05T00:13:05.553Z,5.10
2019-02-05T00:15:34.275Z,5.47
2019-02-05T00:18:02.723Z,5.33
2019-02-05T00:20:31.187Z,5.43
2019-02-05T00:22:59.614Z,5.40
2019-02-05T00:25:28.073Z,5.07
2019-02-05T00:27:56.573Z,5.40
2019-02-05T00:30:25.495Z,4.43
2019-02-05T00:32:53.946Z,5.17
2019-02-05T00:35:22.491Z,5.20
2019-02-05T00:37:50.920Z,5.30
2019-02-05T00:40:19.380Z,4.63
2019-02-05T00:42:47.834Z,5.53
2019-02-05T00:45:18.078Z,5.10
2019-02-05T00:47:46.590Z,5.27
2019-02-05T00:50:16.661Z,4.90
2019-02-05T00:52:45.184Z,4.67
2019-02-05T00:55:15.875Z,4.80
2019-02-05T00:57:44.392Z,4.57
2019-02-05T01:00:21.923Z,4.30
2019-02-05T01:02:50.673Z,4.83
2019-02-05T01:05:19.341Z,4.67
2019-02-05T01:07:47.923Z,5.20
2019-02-05T01:10:16.714Z,5.07
2019-02-05T01:12:45.157Z,4.97
2019-02-05T01:15:17.040Z,5.17
2019-02-05T01:17:45.614Z,4.03
2019-02-05T01:20:17.092Z,4.87
2019-02-05T01:22:46.038Z,4.43
2019-02-05T01:25:16.194Z,4.70
2019-02-05T01:27:44.618Z,4.37
2019-02-05T01:30:20.802Z,5.47
2019-02-05T01:32:49.331Z,4.93
2019-02-05T01:35:17.827Z,4.73
2019-02-05T01:37:46.311Z,4.40
2019-02-05T01:40:17.026Z,4.90
2019-02-05T01:42:45.950Z,5.20
2019-02-05T01:45:16.486Z,4.70
2019-02-05T01:47:45.194Z,5.00
2019-02-05T01:50:22.610Z,4.77
2019-02-05T01:52:51.096Z,3.80
2019-02-05T01:55:19.908Z,4.80
2019-02-05T01:57:48.424Z,4.70
2019-02-05T02:00:22.271Z,4.83
2019-02-05T02:02:50.777Z,4.83
2019-02-05T02:05:19.280Z,4.60
2019-02-05T02:07:47.809Z,4.60
2019-02-05T02:10:19.531Z,4.17
2019-02-05T02:12:48.045Z,4.00
2019-02-05T02:15:16.494Z,4.50
2019-02-05T02:17:44.931Z,4.20
2019-02-05T02:20:16.016Z,4.73
2019-02-05T02:22:45.316Z,4.33
2019-02-05T02:25:14.552Z,5.10
2019-02-05T02:27:43.242Z,4.70
2019-02-05T02:30:32.309Z,4.37
2019-02-05T02:33:00.765Z,4.73
2019-02-05T02:35:29.211Z,4.53
2019-02-05T02:37:57.742Z,4.80
2019-02-05T02:40:26.291Z,4.77
2019-02-05T02:42:54.800Z,4.37
2019-02-05T02:45:23.278Z,4.30
2019-02-05T02:47:51.826Z,4.10
2019-02-05T02:50:23.419Z,4.33
2019-02-05T02:52:52.337Z,3.97
2019-02-05T02:55:20.860Z,4.40
2019-02-05T02:57:49.387Z,4.63
2019-02-05T03:00:21.651Z,4.47
2019-02-05T03:02:51.700Z,4.50
2019-02-05T03:05:22.758Z,4.53
2019-02-05T03:07:51.431Z,4.73
2019-02-05T03:10:27.978Z,4.23
2019-02-05T03:12:56.816Z,4.50
2019-02-05T03:15:25.773Z,4.40
2019-02-05T03:17:54.332Z,4.77
2019-02-05T03:20:22.818Z,3.70
2019-02-05T03:22:51.820Z,4.40
2019-02-05T03:25:25.015Z,4.03
2019-02-05T03:27:54.396Z,3.67
2019-02-05T03:30:24.746Z,3.90
2019-02-05T03:32:55.127Z,4.27
2019-02-05T03:35:23.961Z,3.87
2019-02-05T03:37:52.498Z,4.37
2019-02-05T03:40:29.557Z,4.00
2019-02-05T03:42:58.415Z,3.93
2019-02-05T03:45:29.393Z,4.83
2019-02-05T03:48:01.006Z,4.60
2019-02-05T03:50:31.157Z,3.90
2019-02-05T03:53:08.881Z,3.93
2019-02-05T03:55:46.002Z,4.47
2019-02-05T03:58:33.634Z,4.60
2019-02-05T04:01:16.982Z,4.20
2019-02-05T04:03:54.614Z,4.27
2019-02-05T04:06:46.893Z,4.20
2019-02-05T04:09:36.228Z,4.50
2019-02-05T04:12:13.131Z,4.47
2019-02-05T04:14:50.465Z,4.33
2019-02-05T04:17:50.389Z,4.80
2019-02-05T04:20:34.060Z,4.13
2019-02-05T04:23:20.271Z,4.13
2019-02-05T04:26:00.581Z,4.10
2019-02-05T04:28:37.499Z,4.20
2019-02-05T04:31:14.899Z,3.90
2019-02-05T04:34:17.966Z,4.77
2019-02-05T04:37:07.282Z,4.40
2019-02-05T04:39:50.628Z,3.83
2019-02-05T04:42:31.035Z,4.63
2019-02-05T04:45:14.325Z,4.30
2019-02-05T04:48:05.448Z,5.70
2019-02-05T04:50:55.170Z,5.17
2019-02-05T04:53:26.779Z,5.13
2019-02-05T04:56:14.679Z,5.00
2019-02-05T04:59:00.845Z,6.17
2019-02-05T05:01:38.270Z,5.47
2019-02-05T05:04:18.330Z,5.70
2019-02-05T05:06:55.532Z,5.93
2019-02-05T05:09:27.135Z,5.90
2019-02-05T05:11:55.707Z,4.87
2019-02-05T05:14:24.159Z,5.70
2019-02-05T05:16:52.691Z,5.00
2019-02-05T05:19:21.526Z,5.40
2019-02-05T05:21:50.623Z,5.17
2019-02-05T05:24:19.220Z,4.93
2019-02-05T05:26:47.816Z,5.30
2019-02-05T05:29:16.394Z,4.87
2019-02-05T05:31:44.889Z,5.17
2019-02-05T05:34:13.342Z,5.00
2019-02-05T05:36:50.109Z,5.20
2019-02-05T05:39:18.754Z,5.00
2019-02-05T05:41:47.279Z,4.70
2019-02-05T05:44:15.806Z,5.60
2019-02-05T05:46:44.316Z,5.03
2019-02-05T05:49:12.753Z,5.10
2019-02-05T05:51:41.567Z,5.13
2019-02-05T05:54:10.086Z,5.00
2019-02-05T05:56:38.572Z,5.07
2019-02-05T05:59:07.055Z,4.97
2019-02-05T06:01:35.651Z,5.10
2019-02-05T06:04:04.666Z,5.17
2019-02-05T06:06:33.186Z,5.77
2019-02-05T06:09:01.830Z,5.00
2019-02-05T06:11:30.321Z,5.30
2019-02-05T06:13:58.804Z,5.00
2019-02-05T06:16:27.289Z,4.73
2019-02-05T06:18:55.804Z,5.00
2019-02-05T06:21:24.318Z,5.37
2019-02-05T06:23:53.032Z,4.77
2019-02-05T06:26:21.743Z,6.77
2019-02-05T06:28:50.270Z,5.10
2019-02-05T06:31:18.781Z,5.10
2019-02-05T06:33:47.258Z,4.83
2019-02-05T06:36:15.709Z,5.17
2019-02-05T06:38:44.701Z,5.10
2019-02-05T06:41:13.524Z,5.13
2019-02-05T06:43:42.221Z,4.80
2019-02-05T06:46:10.696Z,5.17
2019-02-05T06:48:39.157Z,4.60
2019-02-05T06:51:07.671Z,4.83
2019-02-05T06:53:36.209Z,5.10
2019-02-05T06:56:05.184Z,5.07
2019-02-05T06:58:33.737Z,4.60
2019-02-05T07:01:02.389Z,4.97
2019-02-05T07:03:30.870Z,5.50
2019-02-05T07:05:59.389Z,5.17
2019-02-05T07:08:27.867Z,5.40
2019-02-05T07:10:56.591Z,5.13
2019-02-05T07:13:25.064Z,5.53
2019-02-05T07:15:53.517Z,5.17
2019-02-05T07:18:21.963Z,5.17
2019-02-05T07:20:50.539Z,5.50
2019-02-05T07:23:19.079Z,5.90
2019-02-05T07:25:47.598Z,5.33
2019-02-05T07:28:16.117Z,5.57
2019-02-05T07:30:44.657Z,6.10
2019-02-05T07:33:13.190Z,5.90
2019-02-05T07:35:41.813Z,5.60
2019-02-05T07:38:10.324Z,5.80
2019-02-05T07:40:38.895Z,5.90
2019-02-05T07:43:07.507Z,5.80
2019-02-05T07:45:36.054Z,6.03
2019-02-05T07:48:04.643Z,6.40
2019-02-05T07:50:33.164Z,6.33
2019-02-05T07:53:01.672Z,6.20
2019-02-05T07:55:30.244Z,6.07
2019-02-05T07:57:58.737Z,6.43
2019-02-05T08:00:29.207Z,6.40
2019-02-05T08:02:57.893Z,6.57
2019-02-05T08:05:29.418Z,6.40
2019-02-05T08:07:58.206Z,6.83
2019-02-05T08:10:26.927Z,7.57
2019-02-05T08:12:55.443Z,6.50
2019-02-05T08:15:29.648Z,7.37
2019-02-05T08:17:58.153Z,7.13
2019-02-05T08:20:26.830Z,6.63
2019-02-05T08:22:55.334Z,7.10
2019-02-05T08:25:23.889Z,7.10
2019-02-05T08:27:52.624Z,10.95
2019-02-05T08:30:23.878Z,7.90
2019-02-05T08:32:52.418Z,8.27
2019-02-05T08:35:21.081Z,7.40
2019-02-05T08:37:49.629Z,8.30
2019-02-05T08:40:23.210Z,6.43
2019-02-05T08:42:51.767Z,7.37
2019-02-05T08:45:32.406Z,7.47
2019-02-05T08:48:00.981Z,6.83
2019-02-05T08:50:30.598Z,7.23
2019-02-05T08:53:08.008Z,7.07
2019-02-05T08:55:36.550Z,7.17
2019-02-05T08:58:07.627Z,7.83
2019-02-05T09:00:38.367Z,7.53
2019-02-05T09:03:08.848Z,7.10
2019-02-05T09:05:37.533Z,7.13
2019-02-05T09:08:06.090Z,7.37
2019-02-05T09:10:36.313Z,7.40
2019-02-05T09:13:05.523Z,8.87
2019-02-05T09:15:34.237Z,8.03
2019-02-05T09:18:02.838Z,7.40
2019-02-05T09:20:31.426Z,7.80
2019-02-05T09:23:00.041Z,7.50
2019-02-05T09:25:28.571Z,7.23
2019-02-05T09:27:57.164Z,7.80
2019-02-05T09:30:31.342Z,7.27
2019-02-05T09:33:02.018Z,7.27
2019-02-05T09:35:30.467Z,7.97
2019-02-05T09:37:59.008Z,8.00
2019-02-05T09:40:30.138Z,8.30
2019-02-05T09:42:58.726Z,7.83
2019-02-05T09:45:29.108Z,8.77
2019-02-05T09:47:58.181Z,8.43
2019-02-05T09:50:26.636Z,8.23
2019-02-05T09:52:55.098Z,8.30
2019-02-05T09:55:23.603Z,9.07
2019-02-05T09:57:52.139Z,8.90
2019-02-05T10:00:29.016Z,9.27
2019-02-05T10:02:57.802Z,9.27
2019-02-05T10:05:28.938Z,9.30
2019-02-05T10:07:57.435Z,9.10
2019-02-05T10:10:26.050Z,9.33
2019-02-05T10:12:54.930Z,9.53
2019-02-05T10:15:28.590Z,8.90
2019-02-05T10:17:57.125Z,9.23
2019-02-05T10:20:26.292Z,9.20
2019-02-05T10:22:56.753Z,8.67
2019-02-05T10:25:25.212Z,8.93
2019-02-05T10:27:53.723Z,9.27
2019-02-05T10:30:27.702Z,8.97
2019-02-05T10:32:56.431Z,8.90
2019-02-05T10:35:24.940Z,8.93
2019-02-05T10:37:53.813Z,9.60
2019-02-05T10:40:24.131Z,9.33
2019-02-05T10:42:52.827Z,9.57
2019-02-05T10:45:24.337Z,9.50
2019-02-05T10:47:52.877Z,8.87
2019-02-05T10:50:21.922Z,8.70
2019-02-05T10:52:50.493Z,9.63
2019-02-05T10:55:22.750Z,9.37
2019-02-05T10:57:53.618Z,9.00
2019-02-05T11:00:32.531Z,10.00
2019-02-05T11:03:03.018Z,8.83
2019-02-05T11:05:32.511Z,9.07
2019-02-05T11:08:01.026Z,9.43
2019-02-05T11:10:29.536Z,10.20
2019-02-05T11:12:58.269Z,9.67
2019-02-05T11:15:29.533Z,8.90
2019-02-05T11:17:58.149Z,9.53
2019-02-05T11:20:28.106Z,9.50
2019-02-05T11:22:57.008Z,9.30
2019-02-05T11:25:25.633Z,9.80
2019-02-05T11:27:54.115Z,9.30
2019-02-05T11:30:25.643Z,10.23
2019-02-05T11:32:54.179Z,10.20
2019-02-05T11:35:22.725Z,9.80
2019-02-05T11:37:51.521Z,9.40
2019-02-05T11:40:25.749Z,9.30
2019-02-05T11:42:54.281Z,9.60
2019-02-05T11:45:23.189Z,9.80
2019-02-05T11:47:51.790Z,10.53
2019-02-05T11:50:20.370Z,10.07
2019-02-05T11:52:49.070Z,10.33
2019-02-05T11:55:20.393Z,9.57
2019-02-05T11:57:49.102Z,10.60
2019-02-05T12:00:33.187Z,9.67
2019-02-05T12:03:02.435Z,9.30
2019-02-05T12:05:30.941Z,11.13
2019-02-05T12:07:59.761Z,9.60
2019-02-05T12:10:28.451Z,9.40
2019-02-05T12:12:56.907Z,10.20
2019-02-05T12:15:25.346Z,9.30
2019-02-05T12:17:53.957Z,9.53
2019-02-05T12:20:22.948Z,9.07
2019-02-05T12:22:51.512Z,10.20
2019-02-05T12:25:22.567Z,10.77
2019-02-05T12:27:51.092Z,9.47
2019-02-05T12:30:25.138Z,9.90
2019-02-05T12:32:53.595Z,9.90
2019-02-05T12:35:22.111Z,9.63
2019-02-05T12:37:50.643Z,10.10
2019-02-05T12:40:19.713Z,9.67
2019-02-05T12:42:48.297Z,10.13
2019-02-05T12:45:28.568Z,10.53
2019-02-05T12:47:57.167Z,9.67
2019-02-05T12:50:28.111Z,9.93
2019-02-05T12:52:56.840Z,10.50
2019-02-05T12:55:25.694Z,10.03
2019-02-05T12:57:54.602Z,10.80
2019-02-05T13:00:31.994Z,10.23
2019-02-05T13:03:00.567Z,11.13
2019-02-05T13:05:29.307Z,9.97
2019-02-05T13:07:57.797Z,10.57
2019-02-05T13:10:29.209Z,9.93
2019-02-05T13:12:57.993Z,10.63
2019-02-05T13:15:26.516Z,9.97
2019-02-05T13:17:55.038Z,9.83
2019-02-05T13:20:26.100Z,9.80
2019-02-05T13:22:54.917Z,10.20
2019-02-05T13:25:25.894Z,10.33
2019-02-05T13:27:54.482Z,11.17
2019-02-05T13:30:32.842Z,10.10
2019-02-05T13:33:01.448Z,10.57
2019-02-05T13:35:30.541Z,10.93
2019-02-05T13:37:59.124Z,10.77
2019-02-05T13:40:28.978Z,9.97
2019-02-05T13:42:57.891Z,10.60
2019-02-05T13:45:32.186Z,10.87
2019-02-05T13:48:01.198Z,10.87
2019-02-05T13:50:33.471Z,10.67
2019-02-05T13:53:01.804Z,10.13
2019-02-05T13:55:36.411Z,10.97
2019-02-05T13:58:05.611Z,11.30
2019-02-05T14:00:42.386Z,11.20
2019-02-05T14:03:11.386Z,10.90
2019-02-05T14:05:40.265Z,11.70
2019-02-05T14:08:09.029Z,11.03
2019-02-05T14:10:39.800Z,10.63
2019-02-05T14:13:08.378Z,10.60
2019-02-05T14:15:39.375Z,11.13
2019-02-05T14:18:08.352Z,11.23
2019-02-05T14:20:36.954Z,10.73
2019-02-05T14:23:06.387Z,11.27
2019-02-05T14:25:34.884Z,11.50
2019-02-05T14:28:03.609Z,11.43
2019-02-05T14:30:38.403Z,11.43
2019-02-05T14:33:06.985Z,11.37
2019-02-05T14:35:35.468Z,11.67
2019-02-05T14:38:05.101Z,12.40
2019-02-05T14:40:33.555Z,11.30
2019-02-05T14:43:02.008Z,11.10
2019-02-05T14:45:30.541Z,12.63
2019-02-05T14:47:59.257Z,11.80
2019-02-05T14:50:32.990Z,10.90
2019-02-05T14:53:01.424Z,10.87
2019-02-05T14:55:29.969Z,11.10
2019-02-05T14:57:58.553Z,10.53
2019-02-05T15:00:34.384Z,9.73
2019-02-05T15:03:05.150Z,10.50
2019-02-05T15:05:33.611Z,10.30
2019-02-05T15:08:02.062Z,11.77
2019-02-05T15:10:30.589Z,11.20
2019-02-05T15:12:59.104Z,11.07
2019-02-05T15:15:29.204Z,12.10
2019-02-05T15:17:58.083Z,10.63
2019-02-05T15:20:31.841Z,11.20
2019-02-05T15:23:00.726Z,10.97
2019-02-05T15:25:29.409Z,10.27
2019-02-05T15:27:57.994Z,10.10
2019-02-05T15:30:31.946Z,10.30
2019-02-05T15:33:18.156Z,11.07
2019-02-05T15:35:48.660Z,10.47
2019-02-05T15:38:17.125Z,11.00
2019-02-05T15:40:46.046Z,9.90
2019-02-05T15:43:14.501Z,10.20
2019-02-05T15:45:43.017Z,10.30
2019-02-05T15:48:11.459Z,11.20
2019-02-05T15:50:39.918Z,11.07
2019-02-05T15:53:08.425Z,11.17
2019-02-05T15:55:36.987Z,10.73
2019-02-05T15:58:05.535Z,11.00
2019-02-05T16:00:34.702Z,11.00
2019-02-05T16:03:03.472Z,10.70
2019-02-05T16:05:31.993Z,11.23
2019-02-05T16:08:00.431Z,11.03
2019-02-05T16:10:28.971Z,11.00
2019-02-05T16:12:57.797Z,11.37
2019-02-05T16:15:26.319Z,11.57
2019-02-05T16:17:54.785Z,11.57
2019-02-05T16:20:23.342Z,11.57
2019-02-05T16:22:52.089Z,11.67
2019-02-05T16:25:20.572Z,11.93
2019-02-05T16:27:49.080Z,11.93
2019-02-05T16:30:19.428Z,12.17
2019-02-05T16:32:47.871Z,11.27
2019-02-05T16:35:16.493Z,11.97
2019-02-05T16:37:45.066Z,12.33
2019-02-05T16:40:25.407Z,11.77
2019-02-05T16:42:54.120Z,11.40
2019-02-05T16:45:25.190Z,11.27
2019-02-05T16:47:53.648Z,12.00
2019-02-05T16:50:24.692Z,11.87
2019-02-05T16:52:53.933Z,11.83
2019-02-05T16:55:22.451Z,12.03
2019-02-05T16:57:51.212Z,11.97
2019-02-05T17:00:22.797Z,11.83
2019-02-05T17:02:51.246Z,11.33
2019-02-05T17:05:21.426Z,12.00
2019-02-05T17:07:49.880Z,11.87
2019-02-05T17:10:22.024Z,11.47
2019-02-05T17:12:50.622Z,11.57
2019-02-05T17:15:19.995Z,11.10
2019-02-05T17:17:48.525Z,11.57
2019-02-05T17:20:25.012Z,11.80
2019-02-05T17:22:53.490Z,11.73
2019-02-05T17:25:24.248Z,10.93
2019-02-05T17:27:53.252Z,10.87
2019-02-05T17:30:27.493Z,11.03
2019-02-05T17:32:55.939Z,11.63
2019-02-05T17:35:24.422Z,10.37
2019-02-05T17:37:52.946Z,10.80
2019-02-05T17:40:23.597Z,9.77
2019-02-05T17:42:52.793Z,10.93
2019-02-05T17:45:35.090Z,10.13
2019-02-05T17:48:06.758Z,9.87
2019-02-05T17:50:35.325Z,10.63
2019-02-05T17:53:04.243Z,11.10
2019-02-05T17:55:32.676Z,10.00
2019-02-05T17:58:01.142Z,10.23
2019-02-05T18:00:35.288Z,8.73
2019-02-05T18:03:03.996Z,8.73
2019-02-05T18:05:34.818Z,9.17
2019-02-05T18:08:02.664Z,9.70
2019-02-05T18:10:31.101Z,9.60
2019-02-05T18:12:59.621Z,9.23
2019-02-05T18:15:39.338Z,9.53
2019-02-05T18:18:08.052Z,9.23
2019-02-05T18:20:36.923Z,8.40
2019-02-05T18:23:05.810Z,10.00
2019-02-05T18:25:34.245Z,9.83
2019-02-05T18:28:02.830Z,10.43
2019-02-05T18:30:33.348Z,10.40
2019-02-05T18:33:05.442Z,10.67
2019-02-05T18:35:32.079Z,9.87
2019-02-05T18:38:01.548Z,10.17
2019-02-05T18:40:30.199Z,10.23
2019-02-05T18:42:58.656Z,9.73
2019-02-05T18:45:27.097Z,9.07
2019-02-05T18:47:55.559Z,10.20
2019-02-05T18:50:28.369Z,9.23
2019-02-05T18:52:56.959Z,9.07
2019-02-05T18:55:28.125Z,10.00
2019-02-05T18:58:08.491Z,8.93
2019-02-05T19:00:31.761Z,9.17
2019-02-05T19:03:00.308Z,9.53
2019-02-05T19:05:28.920Z,9.80
2019-02-05T19:07:57.474Z,9.27
2019-02-05T19:10:30.454Z,9.27
2019-02-05T19:12:59.081Z,9.63
2019-02-05T19:15:38.359Z,10.50
2019-02-05T19:18:08.124Z,9.50
2019-02-05T19:20:36.627Z,8.57
2019-02-05T19:23:07.338Z,8.97
2019-02-05T19:25:43.172Z,10.03
2019-02-05T19:28:13.319Z,9.10
2019-02-05T19:30:43.695Z,8.77
2019-02-05T19:33:12.194Z,9.20
2019-02-05T19:35:40.634Z,10.00
2019-02-05T19:38:09.149Z,9.70
2019-02-05T19:40:37.662Z,10.50
2019-02-05T19:43:06.186Z,9.63
2019-02-05T19:45:52.315Z,10.33
2019-02-05T19:48:28.307Z,9.83
2019-02-05T19:50:57.122Z,10.53
2019-02-05T19:53:26.078Z,9.73
2019-02-05T19:55:54.903Z,10.47
2019-02-05T19:58:23.380Z,10.50
2019-02-05T20:00:52.178Z,10.33
2019-02-05T20:03:20.767Z,10.80
2019-02-05T20:05:49.214Z,10.23
2019-02-05T20:08:17.669Z,9.87
2019-02-05T20:10:46.126Z,9.50
2019-02-05T20:13:14.724Z,10.50
2019-02-05T20:15:43.219Z,11.20
2019-02-05T20:18:12.127Z,10.07
2019-02-05T20:20:40.572Z,10.90
2019-02-05T20:23:09.014Z,10.00
2019-02-05T20:25:37.457Z,10.37
2019-02-05T20:28:05.927Z,9.87
2019-02-05T20:30:34.435Z,9.90
2019-02-05T20:33:03.020Z,9.73
2019-02-05T20:35:31.867Z,10.10
2019-02-05T20:38:00.330Z,10.70
2019-02-05T20:40:28.901Z,10.90
2019-02-05T20:42:57.429Z,10.00
2019-02-05T20:45:25.896Z,10.13
2019-02-05T20:47:56.093Z,11.13
2019-02-05T20:50:24.685Z,9.60
2019-02-05T20:52:53.488Z,10.07
2019-02-05T20:55:24.299Z,9.47
2019-02-05T20:57:52.925Z,9.90
2019-02-05T21:00:26.442Z,10.23
2019-02-05T21:02:55.010Z,10.30
2019-02-05T21:05:23.494Z,9.30
2019-02-05T21:07:51.993Z,9.77
2019-02-05T21:10:26.215Z,9.83
2019-02-05T21:12:54.711Z,10.00
2019-02-05T21:15:23.751Z,9.77
2019-02-05T21:17:52.373Z,10.30
2019-02-05T21:20:31.726Z,10.63
2019-02-05T21:22:59.218Z,10.63
2019-02-05T21:25:27.853Z,10.70
2019-02-05T21:27:58.299Z,10.07
2019-02-05T21:30:26.466Z,9.87
2019-02-05T21:32:55.078Z,10.40
2019-02-05T21:35:23.525Z,10.47
2019-02-05T21:37:51.964Z,10.40
2019-02-05T21:40:25.194Z,11.20
2019-02-05T21:42:53.829Z,11.10
2019-02-05T21:45:27.386Z,11.07
2019-02-05T21:47:55.849Z,11.40
2019-02-05T21:50:24.755Z,10.27
2019-02-05T21:52:53.446Z,11.10
2019-02-05T21:55:23.334Z,11.03
2019-02-05T21:57:51.905Z,10.83
2019-02-05T22:00:33.908Z,11.47
2019-02-05T22:03:02.786Z,10.87
2019-02-05T22:05:32.639Z,11.03
2019-02-05T22:08:01.674Z,11.37
2019-02-05T22:10:30.200Z,10.80
2019-02-05T22:12:58.749Z,10.97
2019-02-05T22:15:27.589Z,11.27
2019-02-05T22:17:56.099Z,10.67
2019-02-05T22:20:26.041Z,11.57
2019-02-05T22:22:56.501Z,11.43
2019-02-05T22:25:32.613Z,10.90
2019-02-05T22:28:01.204Z,11.83
2019-02-05T22:30:31.892Z,12.03
2019-02-05T22:33:00.579Z,11.13
2019-02-05T22:35:29.240Z,11.33
2019-02-05T22:37:57.749Z,12.13
2019-02-05T22:40:27.654Z,11.53
2019-02-05T22:42:56.409Z,11.07
2019-02-05T22:45:27.780Z,11.20
2019-02-05T22:47:56.248Z,11.83
2019-02-05T22:50:29.680Z,11.10
2019-02-05T22:52:58.301Z,11.17
2019-02-05T22:55:26.826Z,11.83
2019-02-05T22:57:55.345Z,12.07
2019-02-05T23:00:50.509Z,11.33
2019-02-05T23:03:25.056Z,12.00
2019-02-05T23:06:14.664Z,12.03
2019-02-05T23:08:43.104Z,12.23
2019-02-05T23:11:29.107Z,12.07
2019-02-05T23:13:57.638Z,13.20
2019-02-05T23:16:26.159Z,12.10
2019-02-05T23:18:54.675Z,12.23
2019-02-05T23:21:23.125Z,12.27
2019-02-05T23:23:51.634Z,11.60
2019-02-05T23:26:20.094Z,12.73
2019-02-05T23:28:48.549Z,11.70
2019-02-05T23:31:17.118Z,11.43
2019-02-05T23:33:45.560Z,12.43
2019-02-05T23:36:14.239Z,12.07
2019-02-05T23:38:42.858Z,12.20
2019-02-05T23:41:11.687Z,11.83
2019-02-05T23:43:40.121Z,11.63
2019-02-05T23:46:08.566Z,11.80
2019-02-05T23:48:37.022Z,11.80
2019-02-05T23:51:05.565Z,12.23
2019-02-05T23:53:34.078Z,11.83
2019-02-05T23:56:02.680Z,12.20
2019-02-05T23:58:31.387Z,12.00
